Airfield :
LOGIN :

Register | Disclaimer

   EN    FR    IT 

 










Legend :    VFR   Marginal VFR   IFR   Intensive IFR   Very Intensive IFR
Visi :
Ceiling :
>= 8 km
>= 3000ft
5 to 8 km
1000 to 3000 ft
1500m to 5 km
500 to 1000 ft
800 to 1500m
200 to 500 ft
< 800m
< 200 ft
Symbols :   Thunderstorms  Fog  Heavy snow  Heavy precipitations  Wind > 20 kt
SIGMETs :     Misc.  Thunderstorms  Icing  Turbulence  Mountain Waves  Volcanic Ashes






- Airport Elevation : 65 ft
- IATA code : PIK


EGPK - Glasgow Prestwick

CURRENT METAR :
  • 220050Z 20016KT 9999 FEW031 SCT039 BKN049 08/05 Q0983

EXPIRED METARs :
  • 220020Z 20015KT 9999 FEW031 SCT039 BKN049 08/05 Q0984
  • 212350Z 21018G29KT 9999 -RA FEW031 SCT039 BKN049 08/05 Q0984
  • 212320Z 19017KT 9999 FEW040 08/05 Q0985
  • 212250Z 19014KT 9999 SCT049 07/05 Q0985
  • 212220Z 18008KT 9999 FEW034 06/04 Q0986
  • 212150Z 18007KT 9999 FEW034 06/03 Q0986
  • 212120Z 19011KT 9999 FEW030 07/03 Q0987
  • 212050Z 19008KT 9999 FEW030 SCT037 07/04 Q0987
  • 212020Z 21010KT 180V240 9999 FEW030 SCT037 07/04 Q0987
  • 211950Z 22009KT 9999 FEW030 SCT037 07/04 Q0989

TAF TAF EGPK
Valid from the 22 at 00:00 until the 23 at 00:00 UTC


212258Z 2200/2224 22009KT 9999 FEW030
TEMPO 2200/2224 6000 RA SHRA BKN012
PROB30
TEMPO 2200/2207 23015G25KT 4000 +SHRA BKN008 BKN020CB
PROB30
TEMPO 2207/2224 25015G25KT 3000 +SHGSRA BKN008 BKN018CB



MET'MAP, your aeronautical weather chart ! - Copyright ORBIFLY December 2007 - Disclaimer

ORBIFLY MET'MAP TEAM :

Programming & Development : Alexandra Zaïnal
Original concept : Baudouin d'Aumeries
Technical & hardware support : Manuel Goepfert
Assistance : Marc-Olivier Méhu




SOURCES & CREDITS :

   NOAA